X  Cerrar Datos meteorológicos de aviación METAR     EHKD De Kooy Airport
Temperatura
19°C Temperatura
15°C Punto de rocío
78% Humedad



Viento
29 KM/H
18 MPH
8 M/S
16 NUDO



230°
SO
Condiciones actuales

Mayormente nublado Mayormente nublado
Presión 1008.81 (hPa) - 29.79 (inHg)
Visibilidad 6 (milla) - 9.7 (km)
Aeropuerto
Código de aeropuerto EHKD

localidad: De Kooy Airport
Distancia: 34 (km)

Metar:
EHKD 161502Z AUTO 23016KT 190V260 9999 BKN013 BKN015 OVC019 19/15 Q1009 GRN NOSIG

Hora: 16-07-2024 17:02 CEST